sensor_id;sensor_type;location;lat;lon;timestamp;temperature;humidity
6307;DHT22;3186;54.062;9.962;2023-08-21T00:00:14;20.30;99.90
6307;DHT22;3186;54.062;9.962;2023-08-21T00:02:40;20.40;99.90
6307;DHT22;3186;54.062;9.962;2023-08-21T00:05:06;20.40;99.90
6307;DHT22;3186;54.062;9.962;2023-08-21T00:07:32;20.30;99.90
6307;DHT22;3186;54.062;9.962;2023-08-21T00:09:57;20.30;99.90
6307;DHT22;3186;54.062;9.962;2023-08-21T00:12:26;20.30;99.90
6307;DHT22;3186;54.062;9.962;2023-08-21T00:14:52;20.30;99.90
6307;DHT22;3186;54.062;9.962;2023-08-21T00:17:17;20.20;99.90
6307;DHT22;3186;54.062;9.962;2023-08-21T00:19:43;20.20;99.90
6307;DHT22;3186;54.062;9.962;2023-08-21T00:22:09;20.20;99.90
6307;DHT22;3186;54.062;9.962;2023-08-21T00:24:34;20.20;99.90
6307;DHT22;3186;54.062;9.962;2023-08-21T00:27:00;20.10;99.90
6307;DHT22;3186;54.062;9.962;2023-08-21T00:29:27;20.10;99.90
6307;DHT22;3186;54.062;9.962;2023-08-21T00:31:53;20.20;99.90
6307;DHT22;3186;54.062;9.962;2023-08-21T00:34:21;20.10;99.90
6307;DHT22;3186;54.062;9.962;2023-08-21T00:36:47;20.10;99.90
6307;DHT22;3186;54.062;9.962;2023-08-21T00:39:12;20.10;99.90
6307;DHT22;3186;54.062;9.962;2023-08-21T00:41:38;20.00;99.90
6307;DHT22;3186;54.062;9.962;2023-08-21T00:44:04;20.40;99.90
6307;DHT22;3186;54.062;9.962;2023-08-21T00:46:30;19.90;99.90
6307;DHT22;3186;54.062;9.962;2023-08-21T00:48:57;19.90;99.90
6307;DHT22;3186;54.062;9.962;2023-08-21T00:51:23;19.90;99.90
6307;DHT22;3186;54.062;9.962;2023-08-21T00:53:49;19.90;99.90
6307;DHT22;3186;54.062;9.962;2023-08-21T00:56:15;19.90;99.90
6307;DHT22;3186;54.062;9.962;2023-08-21T00:58:41;19.80;99.90
6307;DHT22;3186;54.062;9.962;2023-08-21T01:01:07;19.80;99.90
6307;DHT22;3186;54.062;9.962;2023-08-21T01:03:33;19.80;99.90
6307;DHT22;3186;54.062;9.962;2023-08-21T01:05:59;19.70;99.90
6307;DHT22;3186;54.062;9.962;2023-08-21T01:08:53;19.70;99.90
6307;DHT22;3186;54.062;9.962;2023-08-21T01:11:26;19.70;99.90
6307;DHT22;3186;54.062;9.962;2023-08-21T01:14:22;19.60;99.90
6307;DHT22;3186;54.062;9.962;2023-08-21T01:16:55;19.60;99.90
6307;DHT22;3186;54.062;9.962;2023-08-21T01:19:37;19.50;99.90
6307;DHT22;3186;54.062;9.962;2023-08-21T01:22:03;19.50;99.90
6307;DHT22;3186;54.062;9.962;2023-08-21T01:24:29;19.50;99.90
6307;DHT22;3186;54.062;9.962;2023-08-21T01:26:55;19.50;99.90
6307;DHT22;3186;54.062;9.962;2023-08-21T01:29:21;19.40;99.90
6307;DHT22;3186;54.062;9.962;2023-08-21T01:31:55;19.40;99.90
6307;DHT22;3186;54.062;9.962;2023-08-21T01:34:23;19.40;99.90
6307;DHT22;3186;54.062;9.962;2023-08-21T01:36:49;19.30;99.90
6307;DHT22;3186;54.062;9.962;2023-08-21T01:39:15;19.60;99.90
6307;DHT22;3186;54.062;9.962;2023-08-21T01:41:41;19.30;99.90
6307;DHT22;3186;54.062;9.962;2023-08-21T01:44:07;19.30;99.90
6307;DHT22;3186;54.062;9.962;2023-08-21T01:46:32;19.20;99.90
6307;DHT22;3186;54.062;9.962;2023-08-21T01:48:58;19.20;99.90
6307;DHT22;3186;54.062;9.962;2023-08-21T01:51:24;19.20;99.90
6307;DHT22;3186;54.062;9.962;2023-08-21T01:53:49;19.10;99.90
6307;DHT22;3186;54.062;9.962;2023-08-21T01:56:15;19.10;99.90
6307;DHT22;3186;54.062;9.962;2023-08-21T01:58:41;19.10;99.90
6307;DHT22;3186;54.062;9.962;2023-08-21T02:01:06;19.10;99.90
6307;DHT22;3186;54.062;9.962;2023-08-21T02:03:33;19.00;99.90
6307;DHT22;3186;54.062;9.962;2023-08-21T02:05:58;19.00;99.90
6307;DHT22;3186;54.062;9.962;2023-08-21T02:08:30;18.90;99.90
6307;DHT22;3186;54.062;9.962;2023-08-21T02:10:56;18.90;99.90
6307;DHT22;3186;54.062;9.962;2023-08-21T02:13:21;18.90;99.90
6307;DHT22;3186;54.062;9.962;2023-08-21T02:15:47;18.90;99.90
6307;DHT22;3186;54.062;9.962;2023-08-21T02:18:12;18.90;99.90
6307;DHT22;3186;54.062;9.962;2023-08-21T02:20:38;18.80;99.90
6307;DHT22;3186;54.062;9.962;2023-08-21T02:23:04;18.80;99.90
6307;DHT22;3186;54.062;9.962;2023-08-21T02:25:31;18.80;99.90
6307;DHT22;3186;54.062;9.962;2023-08-21T02:27:56;18.70;99.90
6307;DHT22;3186;54.062;9.962;2023-08-21T02:30:24;18.70;99.90
6307;DHT22;3186;54.062;9.962;2023-08-21T02:32:52;18.70;99.90
6307;DHT22;3186;54.062;9.962;2023-08-21T02:35:17;18.80;99.90
6307;DHT22;3186;54.062;9.962;2023-08-21T02:37:43;18.60;99.90
6307;DHT22;3186;54.062;9.962;2023-08-21T02:40:09;18.50;99.90
6307;DHT22;3186;54.062;9.962;2023-08-21T02:42:35;18.60;99.90
6307;DHT22;3186;54.062;9.962;2023-08-21T02:45:02;18.80;99.90
6307;DHT22;3186;54.062;9.962;2023-08-21T02:47:37;18.50;99.90
6307;DHT22;3186;54.062;9.962;2023-08-21T02:50:07;18.50;99.90
6307;DHT22;3186;54.062;9.962;2023-08-21T02:52:33;18.50;99.90
6307;DHT22;3186;54.062;9.962;2023-08-21T02:55:00;18.50;99.90
6307;DHT22;3186;54.062;9.962;2023-08-21T02:57:26;18.40;99.90
6307;DHT22;3186;54.062;9.962;2023-08-21T02:59:53;18.40;99.90
6307;DHT22;3186;54.062;9.962;2023-08-21T03:02:19;19.80;99.90
6307;DHT22;3186;54.062;9.962;2023-08-21T03:04:45;18.30;99.90
6307;DHT22;3186;54.062;9.962;2023-08-21T03:07:11;18.30;99.90
6307;DHT22;3186;54.062;9.962;2023-08-21T03:09:37;18.30;99.90
6307;DHT22;3186;54.062;9.962;2023-08-21T03:12:03;18.70;99.90
6307;DHT22;3186;54.062;9.962;2023-08-21T03:14:29;18.30;99.90
6307;DHT22;3186;54.062;9.962;2023-08-21T03:16:55;18.30;99.90
6307;DHT22;3186;54.062;9.962;2023-08-21T03:19:20;18.20;99.90
6307;DHT22;3186;54.062;9.962;2023-08-21T03:21:46;18.20;99.90
6307;DHT22;3186;54.062;9.962;2023-08-21T03:24:12;18.20;99.90
6307;DHT22;3186;54.062;9.962;2023-08-21T03:26:37;18.20;99.90
6307;DHT22;3186;54.062;9.962;2023-08-21T03:29:03;18.20;99.90
6307;DHT22;3186;54.062;9.962;2023-08-21T03:31:30;18.10;99.90
6307;DHT22;3186;54.062;9.962;2023-08-21T03:33:56;18.10;99.90
6307;DHT22;3186;54.062;9.962;2023-08-21T03:36:23;18.10;99.90
6307;DHT22;3186;54.062;9.962;2023-08-21T03:39:01;18.30;99.90
6307;DHT22;3186;54.062;9.962;2023-08-21T03:41:28;18.10;99.90
6307;DHT22;3186;54.062;9.962;2023-08-21T03:43:54;18.20;99.90
6307;DHT22;3186;54.062;9.962;2023-08-21T03:46:19;18.10;99.90
6307;DHT22;3186;54.062;9.962;2023-08-21T03:48:45;18.00;99.90
6307;DHT22;3186;54.062;9.962;2023-08-21T03:51:11;18.00;99.90
6307;DHT22;3186;54.062;9.962;2023-08-21T03:53:36;18.40;99.90
6307;DHT22;3186;54.062;9.962;2023-08-21T03:56:02;18.00;99.90
6307;DHT22;3186;54.062;9.962;2023-08-21T03:58:28;18.00;99.90
6307;DHT22;3186;54.062;9.962;2023-08-21T04:00:54;18.00;99.90
6307;DHT22;3186;54.062;9.962;2023-08-21T04:03:21;18.00;99.90
6307;DHT22;3186;54.062;9.962;2023-08-21T04:05:47;18.00;99.90
6307;DHT22;3186;54.062;9.962;2023-08-21T04:08:13;18.00;99.90
6307;DHT22;3186;54.062;9.962;2023-08-21T04:10:39;18.00;99.90
6307;DHT22;3186;54.062;9.962;2023-08-21T04:13:05;18.00;99.90
6307;DHT22;3186;54.062;9.962;2023-08-21T04:15:31;17.90;99.90
6307;DHT22;3186;54.062;9.962;2023-08-21T04:17:57;17.90;99.90
6307;DHT22;3186;54.062;9.962;2023-08-21T04:20:23;17.80;99.90
6307;DHT22;3186;54.062;9.962;2023-08-21T04:22:49;18.00;99.90
6307;DHT22;3186;54.062;9.962;2023-08-21T04:25:15;17.90;99.90
6307;DHT22;3186;54.062;9.962;2023-08-21T04:27:41;17.80;99.90
6307;DHT22;3186;54.062;9.962;2023-08-21T04:30:08;17.90;99.90
6307;DHT22;3186;54.062;9.962;2023-08-21T04:32:34;17.90;99.90
6307;DHT22;3186;54.062;9.962;2023-08-21T04:35:00;17.90;99.90
6307;DHT22;3186;54.062;9.962;2023-08-21T04:37:26;17.80;99.90
6307;DHT22;3186;54.062;9.962;2023-08-21T04:42:43;17.40;99.90
6307;DHT22;3186;54.062;9.962;2023-08-21T04:45:10;17.80;99.90
6307;DHT22;3186;54.062;9.962;2023-08-21T04:47:37;17.80;99.90
6307;DHT22;3186;54.062;9.962;2023-08-21T04:50:03;17.80;99.90
6307;DHT22;3186;54.062;9.962;2023-08-21T04:52:30;17.70;99.90
6307;DHT22;3186;54.062;9.962;2023-08-21T04:54:56;17.70;99.90
6307;DHT22;3186;54.062;9.962;2023-08-21T04:57:22;17.70;99.90
6307;DHT22;3186;54.062;9.962;2023-08-21T04:59:48;17.70;99.90
6307;DHT22;3186;54.062;9.962;2023-08-21T05:02:14;17.70;99.90
6307;DHT22;3186;54.062;9.962;2023-08-21T05:04:40;17.70;99.90
6307;DHT22;3186;54.062;9.962;2023-08-21T05:07:06;17.70;99.90
6307;DHT22;3186;54.062;9.962;2023-08-21T05:09:33;17.70;99.90
6307;DHT22;3186;54.062;9.962;2023-08-21T05:11:59;17.70;99.90
6307;DHT22;3186;54.062;9.962;2023-08-21T05:14:25;17.70;99.90
6307;DHT22;3186;54.062;9.962;2023-08-21T05:16:51;17.70;99.90
6307;DHT22;3186;54.062;9.962;2023-08-21T05:19:17;17.80;99.90
6307;DHT22;3186;54.062;9.962;2023-08-21T05:21:44;17.70;99.90
6307;DHT22;3186;54.062;9.962;2023-08-21T05:24:10;17.70;99.90
6307;DHT22;3186;54.062;9.962;2023-08-21T05:26:40;17.70;99.90
6307;DHT22;3186;54.062;9.962;2023-08-21T05:29:06;17.70;99.90
6307;DHT22;3186;54.062;9.962;2023-08-21T05:31:31;17.80;99.90
6307;DHT22;3186;54.062;9.962;2023-08-21T05:33:58;17.70;99.90
6307;DHT22;3186;54.062;9.962;2023-08-21T05:36:24;17.80;99.90
6307;DHT22;3186;54.062;9.962;2023-08-21T05:38:50;17.70;99.90
6307;DHT22;3186;54.062;9.962;2023-08-21T05:41:18;17.80;99.90
6307;DHT22;3186;54.062;9.962;2023-08-21T05:43:44;17.80;99.90
6307;DHT22;3186;54.062;9.962;2023-08-21T05:46:12;17.80;99.90
6307;DHT22;3186;54.062;9.962;2023-08-21T05:48:38;17.80;99.90
6307;DHT22;3186;54.062;9.962;2023-08-21T05:51:04;17.80;99.90
6307;DHT22;3186;54.062;9.962;2023-08-21T05:53:31;17.80;99.90
6307;DHT22;3186;54.062;9.962;2023-08-21T05:55:57;17.80;99.90
6307;DHT22;3186;54.062;9.962;2023-08-21T05:58:23;17.80;99.90
6307;DHT22;3186;54.062;9.962;2023-08-21T06:00:49;17.90;99.90
6307;DHT22;3186;54.062;9.962;2023-08-21T06:03:15;17.90;99.90
6307;DHT22;3186;54.062;9.962;2023-08-21T06:06:16;17.90;99.90
6307;DHT22;3186;54.062;9.962;2023-08-21T06:08:42;17.90;99.90
6307;DHT22;3186;54.062;9.962;2023-08-21T06:11:09;18.00;99.90
6307;DHT22;3186;54.062;9.962;2023-08-21T06:13:35;18.00;99.90
6307;DHT22;3186;54.062;9.962;2023-08-21T06:16:01;18.00;99.90
6307;DHT22;3186;54.062;9.962;2023-08-21T06:18:28;18.10;99.90
6307;DHT22;3186;54.062;9.962;2023-08-21T06:20:55;18.10;99.90
6307;DHT22;3186;54.062;9.962;2023-08-21T06:23:21;18.20;99.90
6307;DHT22;3186;54.062;9.962;2023-08-21T06:25:48;18.30;99.90
6307;DHT22;3186;54.062;9.962;2023-08-21T06:28:14;18.20;99.90
6307;DHT22;3186;54.062;9.962;2023-08-21T06:30:40;18.30;99.90
6307;DHT22;3186;54.062;9.962;2023-08-21T06:33:06;18.30;99.90
6307;DHT22;3186;54.062;9.962;2023-08-21T06:35:35;18.40;99.90
6307;DHT22;3186;54.062;9.962;2023-08-21T06:38:01;18.40;99.90
6307;DHT22;3186;54.062;9.962;2023-08-21T06:40:27;18.50;99.90
6307;DHT22;3186;54.062;9.962;2023-08-21T06:42:53;18.50;99.90
6307;DHT22;3186;54.062;9.962;2023-08-21T06:45:22;18.60;99.90
6307;DHT22;3186;54.062;9.962;2023-08-21T06:47:48;18.70;99.90
6307;DHT22;3186;54.062;9.962;2023-08-21T06:50:16;18.80;99.90
6307;DHT22;3186;54.062;9.962;2023-08-21T06:52:42;19.10;99.90
6307;DHT22;3186;54.062;9.962;2023-08-21T06:55:08;19.20;99.90
6307;DHT22;3186;54.062;9.962;2023-08-21T06:57:33;19.20;99.90
6307;DHT22;3186;54.062;9.962;2023-08-21T06:59:59;19.60;99.90
6307;DHT22;3186;54.062;9.962;2023-08-21T07:02:25;19.40;99.90
6307;DHT22;3186;54.062;9.962;2023-08-21T07:04:51;19.70;99.90
6307;DHT22;3186;54.062;9.962;2023-08-21T07:07:17;20.20;99.90
6307;DHT22;3186;54.062;9.962;2023-08-21T07:09:43;20.50;99.90
6307;DHT22;3186;54.062;9.962;2023-08-21T07:12:09;20.30;99.90
6307;DHT22;3186;54.062;9.962;2023-08-21T07:14:34;20.30;99.90
6307;DHT22;3186;54.062;9.962;2023-08-21T07:17:00;20.40;99.90
6307;DHT22;3186;54.062;9.962;2023-08-21T07:19:26;20.70;99.90
6307;DHT22;3186;54.062;9.962;2023-08-21T07:21:52;20.60;99.90
6307;DHT22;3186;54.062;9.962;2023-08-21T07:24:18;20.60;99.90
6307;DHT22;3186;54.062;9.962;2023-08-21T07:26:43;20.50;99.90
6307;DHT22;3186;54.062;9.962;2023-08-21T07:29:09;20.70;99.90
6307;DHT22;3186;54.062;9.962;2023-08-21T07:31:35;20.80;99.90
6307;DHT22;3186;54.062;9.962;2023-08-21T07:34:01;21.00;99.90
6307;DHT22;3186;54.062;9.962;2023-08-21T07:36:27;20.40;99.90
6307;DHT22;3186;54.062;9.962;2023-08-21T07:38:52;20.70;99.90
6307;DHT22;3186;54.062;9.962;2023-08-21T07:41:18;20.90;99.90
6307;DHT22;3186;54.062;9.962;2023-08-21T07:43:44;21.00;99.90
6307;DHT22;3186;54.062;9.962;2023-08-21T07:46:11;21.00;99.90
6307;DHT22;3186;54.062;9.962;2023-08-21T07:48:42;20.90;99.90
6307;DHT22;3186;54.062;9.962;2023-08-21T07:51:08;20.90;99.90
6307;DHT22;3186;54.062;9.962;2023-08-21T07:53:34;20.70;99.90
6307;DHT22;3186;54.062;9.962;2023-08-21T07:56:01;21.20;99.90
6307;DHT22;3186;54.062;9.962;2023-08-21T07:58:27;21.40;99.90
6307;DHT22;3186;54.062;9.962;2023-08-21T08:00:53;21.00;99.90
6307;DHT22;3186;54.062;9.962;2023-08-21T08:03:18;20.90;99.90
6307;DHT22;3186;54.062;9.962;2023-08-21T08:05:44;21.00;99.90
6307;DHT22;3186;54.062;9.962;2023-08-21T08:08:10;21.30;99.90
6307;DHT22;3186;54.062;9.962;2023-08-21T08:10:40;21.80;99.90
6307;DHT22;3186;54.062;9.962;2023-08-21T08:13:06;22.30;99.90
6307;DHT22;3186;54.062;9.962;2023-08-21T08:15:33;22.20;99.90
6307;DHT22;3186;54.062;9.962;2023-08-21T08:18:01;22.00;99.90
6307;DHT22;3186;54.062;9.962;2023-08-21T08:20:27;21.60;99.90
6307;DHT22;3186;54.062;9.962;2023-08-21T08:22:53;21.80;99.90
6307;DHT22;3186;54.062;9.962;2023-08-21T08:25:19;22.10;99.90
6307;DHT22;3186;54.062;9.962;2023-08-21T08:27:44;22.60;99.90
6307;DHT22;3186;54.062;9.962;2023-08-21T08:30:11;23.20;99.90
6307;DHT22;3186;54.062;9.962;2023-08-21T08:32:36;23.10;99.90
6307;DHT22;3186;54.062;9.962;2023-08-21T08:35:02;22.90;99.90
6307;DHT22;3186;54.062;9.962;2023-08-21T08:37:28;22.30;99.90
6307;DHT22;3186;54.062;9.962;2023-08-21T08:39:54;22.70;99.90
6307;DHT22;3186;54.062;9.962;2023-08-21T08:42:20;22.90;99.90
6307;DHT22;3186;54.062;9.962;2023-08-21T08:44:47;22.90;99.90
6307;DHT22;3186;54.062;9.962;2023-08-21T08:47:13;22.90;99.90
6307;DHT22;3186;54.062;9.962;2023-08-21T08:49:40;23.00;99.90
6307;DHT22;3186;54.062;9.962;2023-08-21T08:52:06;23.60;99.90
6307;DHT22;3186;54.062;9.962;2023-08-21T08:54:33;23.50;99.90
6307;DHT22;3186;54.062;9.962;2023-08-21T08:57:01;23.60;99.90
6307;DHT22;3186;54.062;9.962;2023-08-21T08:59:32;23.70;99.90
6307;DHT22;3186;54.062;9.962;2023-08-21T09:01:58;24.00;99.90
6307;DHT22;3186;54.062;9.962;2023-08-21T09:04:24;24.60;99.90
6307;DHT22;3186;54.062;9.962;2023-08-21T09:06:50;24.60;99.90
6307;DHT22;3186;54.062;9.962;2023-08-21T09:09:15;24.60;99.90
6307;DHT22;3186;54.062;9.962;2023-08-21T09:11:46;24.80;99.90
6307;DHT22;3186;54.062;9.962;2023-08-21T09:14:12;24.50;99.90
6307;DHT22;3186;54.062;9.962;2023-08-21T09:16:59;25.10;92.20
6307;DHT22;3186;54.062;9.962;2023-08-21T09:19:26;24.70;93.40
6307;DHT22;3186;54.062;9.962;2023-08-21T09:21:52;25.20;99.90
6307;DHT22;3186;54.062;9.962;2023-08-21T09:24:18;24.60;99.90
6307;DHT22;3186;54.062;9.962;2023-08-21T09:26:43;25.40;99.90
6307;DHT22;3186;54.062;9.962;2023-08-21T09:29:09;25.80;99.90
6307;DHT22;3186;54.062;9.962;2023-08-21T09:31:36;26.10;99.90
6307;DHT22;3186;54.062;9.962;2023-08-21T09:34:03;26.20;99.90
6307;DHT22;3186;54.062;9.962;2023-08-21T09:36:33;25.10;99.90
6307;DHT22;3186;54.062;9.962;2023-08-21T09:39:00;25.80;99.90
6307;DHT22;3186;54.062;9.962;2023-08-21T09:41:26;26.20;97.10
6307;DHT22;3186;54.062;9.962;2023-08-21T09:43:52;26.60;86.50
6307;DHT22;3186;54.062;9.962;2023-08-21T09:46:24;26.40;98.80
6307;DHT22;3186;54.062;9.962;2023-08-21T09:48:52;26.40;99.90
6307;DHT22;3186;54.062;9.962;2023-08-21T09:51:18;26.40;99.90
6307;DHT22;3186;54.062;9.962;2023-08-21T09:53:45;26.20;99.90
6307;DHT22;3186;54.062;9.962;2023-08-21T09:56:12;26.90;99.90
6307;DHT22;3186;54.062;9.962;2023-08-21T09:58:37;27.20;94.50
6307;DHT22;3186;54.062;9.962;2023-08-21T10:01:07;27.50;99.70
6307;DHT22;3186;54.062;9.962;2023-08-21T10:03:42;27.40;98.10
6307;DHT22;3186;54.062;9.962;2023-08-21T10:06:17;27.70;78.90
6307;DHT22;3186;54.062;9.962;2023-08-21T10:08:46;27.90;92.80
6307;DHT22;3186;54.062;9.962;2023-08-21T10:11:13;27.80;43.10
6307;DHT22;3186;54.062;9.962;2023-08-21T10:13:40;28.00;94.50
6307;DHT22;3186;54.062;9.962;2023-08-21T10:16:07;27.70;98.60
6307;DHT22;3186;54.062;9.962;2023-08-21T10:18:35;28.00;57.60
6307;DHT22;3186;54.062;9.962;2023-08-21T10:21:15;28.20;72.10
6307;DHT22;3186;54.062;9.962;2023-08-21T10:23:45;27.70;58.90
6307;DHT22;3186;54.062;9.962;2023-08-21T10:26:11;27.80;91.80
6307;DHT22;3186;54.062;9.962;2023-08-21T10:28:59;28.00;73.90
6307;DHT22;3186;54.062;9.962;2023-08-21T10:33:53;28.30;93.30
6307;DHT22;3186;54.062;9.962;2023-08-21T10:39:13;28.30;50.70
6307;DHT22;3186;54.062;9.962;2023-08-21T10:42:09;28.20;67.10
6307;DHT22;3186;54.062;9.962;2023-08-21T10:49:44;29.00;51.80
6307;DHT22;3186;54.062;9.962;2023-08-21T10:52:10;28.80;40.50
6307;DHT22;3186;54.062;9.962;2023-08-21T10:54:53;29.10;47.10
6307;DHT22;3186;54.062;9.962;2023-08-21T10:57:19;29.00;46.10
6307;DHT22;3186;54.062;9.962;2023-08-21T11:00:08;29.60;66.10
6307;DHT22;3186;54.062;9.962;2023-08-21T11:02:38;30.00;44.60
6307;DHT22;3186;54.062;9.962;2023-08-21T11:05:05;30.10;53.40
6307;DHT22;3186;54.062;9.962;2023-08-21T11:07:42;29.90;79.00
6307;DHT22;3186;54.062;9.962;2023-08-21T11:10:14;30.40;10.50
6307;DHT22;3186;54.062;9.962;2023-08-21T11:12:57;30.10;8.70
6307;DHT22;3186;54.062;9.962;2023-08-21T11:15:24;29.40;39.30
6307;DHT22;3186;54.062;9.962;2023-08-21T11:18:01;29.90;52.70
6307;DHT22;3186;54.062;9.962;2023-08-21T11:20:33;30.00;54.40
6307;DHT22;3186;54.062;9.962;2023-08-21T11:23:00;29.60;54.70
6307;DHT22;3186;54.062;9.962;2023-08-21T11:25:29;29.90;55.30
6307;DHT22;3186;54.062;9.962;2023-08-21T11:27:55;30.20;74.80
6307;DHT22;3186;54.062;9.962;2023-08-21T11:30:24;30.90;49.20
6307;DHT22;3186;54.062;9.962;2023-08-21T11:33:08;30.90;45.30
6307;DHT22;3186;54.062;9.962;2023-08-21T11:35:34;30.80;42.20
6307;DHT22;3186;54.062;9.962;2023-08-21T11:38:00;30.60;19.00
6307;DHT22;3186;54.062;9.962;2023-08-21T11:40:26;30.70;18.70
6307;DHT22;3186;54.062;9.962;2023-08-21T11:42:52;30.70;54.70
6307;DHT22;3186;54.062;9.962;2023-08-21T11:45:20;30.20;20.10
6307;DHT22;3186;54.062;9.962;2023-08-21T11:47:46;30.80;61.40
6307;DHT22;3186;54.062;9.962;2023-08-21T11:50:14;30.70;24.40
6307;DHT22;3186;54.062;9.962;2023-08-21T11:52:43;30.30;38.10
6307;DHT22;3186;54.062;9.962;2023-08-21T11:55:09;30.90;39.10
6307;DHT22;3186;54.062;9.962;2023-08-21T11:57:52;31.50;40.80
6307;DHT22;3186;54.062;9.962;2023-08-21T12:00:19;31.80;20.00
6307;DHT22;3186;54.062;9.962;2023-08-21T12:02:58;31.30;42.30
6307;DHT22;3186;54.062;9.962;2023-08-21T12:05:26;31.30;7.40
6307;DHT22;3186;54.062;9.962;2023-08-21T12:07:52;30.60;28.60
6307;DHT22;3186;54.062;9.962;2023-08-21T12:10:29;30.70;4.20
6307;DHT22;3186;54.062;9.962;2023-08-21T12:12:55;31.00;38.60
6307;DHT22;3186;54.062;9.962;2023-08-21T12:15:21;31.10;26.30
6307;DHT22;3186;54.062;9.962;2023-08-21T12:17:47;31.60;45.10
6307;DHT22;3186;54.062;9.962;2023-08-21T12:20:13;31.90;35.50
6307;DHT22;3186;54.062;9.962;2023-08-21T12:22:40;31.60;1.00
6307;DHT22;3186;54.062;9.962;2023-08-21T12:25:08;31.20;29.60
6307;DHT22;3186;54.062;9.962;2023-08-21T12:27:34;30.80;42.00
6307;DHT22;3186;54.062;9.962;2023-08-21T12:30:00;31.10;43.00
6307;DHT22;3186;54.062;9.962;2023-08-21T12:32:26;31.60;47.40
6307;DHT22;3186;54.062;9.962;2023-08-21T12:34:52;31.70;45.80
6307;DHT22;3186;54.062;9.962;2023-08-21T12:37:18;31.40;6.20
6307;DHT22;3186;54.062;9.962;2023-08-21T12:39:44;31.70;29.70
6307;DHT22;3186;54.062;9.962;2023-08-21T12:42:09;31.70;39.40
6307;DHT22;3186;54.062;9.962;2023-08-21T12:44:35;31.60;34.20
6307;DHT22;3186;54.062;9.962;2023-08-21T12:47:01;31.80;40.30
6307;DHT22;3186;54.062;9.962;2023-08-21T12:49:27;31.90;47.00
6307;DHT22;3186;54.062;9.962;2023-08-21T12:51:53;31.80;49.00
6307;DHT22;3186;54.062;9.962;2023-08-21T12:54:19;31.60;31.80
6307;DHT22;3186;54.062;9.962;2023-08-21T12:56:45;31.30;33.80
6307;DHT22;3186;54.062;9.962;2023-08-21T12:59:10;31.10;48.90
6307;DHT22;3186;54.062;9.962;2023-08-21T13:01:36;31.00;34.50
6307;DHT22;3186;54.062;9.962;2023-08-21T13:04:03;30.80;32.00
6307;DHT22;3186;54.062;9.962;2023-08-21T13:06:29;31.50;45.80
6307;DHT22;3186;54.062;9.962;2023-08-21T13:08:55;31.50;43.40
6307;DHT22;3186;54.062;9.962;2023-08-21T13:11:21;31.50;38.10
6307;DHT22;3186;54.062;9.962;2023-08-21T13:13:47;31.70;38.20
6307;DHT22;3186;54.062;9.962;2023-08-21T13:16:12;31.60;31.40
6307;DHT22;3186;54.062;9.962;2023-08-21T13:18:39;31.90;42.40
6307;DHT22;3186;54.062;9.962;2023-08-21T13:21:04;32.10;19.50
6307;DHT22;3186;54.062;9.962;2023-08-21T13:23:30;31.80;38.20
6307;DHT22;3186;54.062;9.962;2023-08-21T13:25:57;32.30;42.60
6307;DHT22;3186;54.062;9.962;2023-08-21T13:28:23;32.30;41.70
6307;DHT22;3186;54.062;9.962;2023-08-21T13:30:49;32.30;39.00
6307;DHT22;3186;54.062;9.962;2023-08-21T13:33:15;32.30;41.60
6307;DHT22;3186;54.062;9.962;2023-08-21T13:35:44;32.30;34.30
6307;DHT22;3186;54.062;9.962;2023-08-21T13:38:12;32.50;44.50
6307;DHT22;3186;54.062;9.962;2023-08-21T13:40:38;32.20;37.00
6307;DHT22;3186;54.062;9.962;2023-08-21T13:43:03;31.80;41.10
6307;DHT22;3186;54.062;9.962;2023-08-21T13:45:29;31.90;47.70
6307;DHT22;3186;54.062;9.962;2023-08-21T13:47:55;31.80;39.70
6307;DHT22;3186;54.062;9.962;2023-08-21T13:50:21;32.10;38.20
6307;DHT22;3186;54.062;9.962;2023-08-21T13:52:47;31.80;33.80
6307;DHT22;3186;54.062;9.962;2023-08-21T13:55:14;31.80;39.00
6307;DHT22;3186;54.062;9.962;2023-08-21T13:57:39;31.90;40.10
6307;DHT22;3186;54.062;9.962;2023-08-21T14:00:07;32.10;45.40
6307;DHT22;3186;54.062;9.962;2023-08-21T14:02:34;32.40;43.50
6307;DHT22;3186;54.062;9.962;2023-08-21T14:05:01;32.00;41.10
6307;DHT22;3186;54.062;9.962;2023-08-21T14:07:27;31.70;38.90
6307;DHT22;3186;54.062;9.962;2023-08-21T14:09:52;31.60;16.80
6307;DHT22;3186;54.062;9.962;2023-08-21T14:12:19;31.30;30.40
6307;DHT22;3186;54.062;9.962;2023-08-21T14:14:44;30.90;35.10
6307;DHT22;3186;54.062;9.962;2023-08-21T14:17:10;30.80;36.20
6307;DHT22;3186;54.062;9.962;2023-08-21T14:19:36;30.80;38.30
6307;DHT22;3186;54.062;9.962;2023-08-21T14:22:02;30.80;28.70
6307;DHT22;3186;54.062;9.962;2023-08-21T14:24:28;30.50;14.40
6307;DHT22;3186;54.062;9.962;2023-08-21T14:26:54;30.40;15.50
6307;DHT22;3186;54.062;9.962;2023-08-21T14:29:20;30.50;13.50
6307;DHT22;3186;54.062;9.962;2023-08-21T14:31:46;30.60;17.40
6307;DHT22;3186;54.062;9.962;2023-08-21T14:34:13;30.30;12.60
6307;DHT22;3186;54.062;9.962;2023-08-21T14:36:39;30.20;12.50
6307;DHT22;3186;54.062;9.962;2023-08-21T14:39:05;30.30;11.00
6307;DHT22;3186;54.062;9.962;2023-08-21T14:41:31;30.10;13.20
6307;DHT22;3186;54.062;9.962;2023-08-21T14:43:57;30.20;19.20
6307;DHT22;3186;54.062;9.962;2023-08-21T14:46:23;30.50;20.80
6307;DHT22;3186;54.062;9.962;2023-08-21T14:48:49;30.50;20.50
6307;DHT22;3186;54.062;9.962;2023-08-21T14:51:14;30.30;19.90
6307;DHT22;3186;54.062;9.962;2023-08-21T14:53:41;30.30;21.00
6307;DHT22;3186;54.062;9.962;2023-08-21T14:56:06;30.00;22.40
6307;DHT22;3186;54.062;9.962;2023-08-21T14:58:32;30.00;22.90
6307;DHT22;3186;54.062;9.962;2023-08-21T15:00:58;30.00;22.00
6307;DHT22;3186;54.062;9.962;2023-08-21T15:03:24;30.00;24.50
6307;DHT22;3186;54.062;9.962;2023-08-21T15:05:50;29.20;19.50
6307;DHT22;3186;54.062;9.962;2023-08-21T15:08:16;29.40;18.80
6307;DHT22;3186;54.062;9.962;2023-08-21T15:10:42;29.60;28.60
6307;DHT22;3186;54.062;9.962;2023-08-21T15:13:08;30.00;25.10
6307;DHT22;3186;54.062;9.962;2023-08-21T15:15:34;29.90;27.00
6307;DHT22;3186;54.062;9.962;2023-08-21T15:18:00;30.10;20.30
6307;DHT22;3186;54.062;9.962;2023-08-21T15:20:26;30.10;27.90
6307;DHT22;3186;54.062;9.962;2023-08-21T15:22:52;30.30;1.00
6307;DHT22;3186;54.062;9.962;2023-08-21T15:25:18;30.30;27.40
6307;DHT22;3186;54.062;9.962;2023-08-21T15:27:43;30.30;24.40
6307;DHT22;3186;54.062;9.962;2023-08-21T15:30:10;30.40;29.50
6307;DHT22;3186;54.062;9.962;2023-08-21T15:32:36;30.50;20.90
6307;DHT22;3186;54.062;9.962;2023-08-21T15:35:02;30.70;18.00
6307;DHT22;3186;54.062;9.962;2023-08-21T15:37:30;30.70;28.70
6307;DHT22;3186;54.062;9.962;2023-08-21T15:39:56;30.40;32.20
6307;DHT22;3186;54.062;9.962;2023-08-21T15:42:22;30.50;25.10
6307;DHT22;3186;54.062;9.962;2023-08-21T15:44:48;30.30;28.00
6307;DHT22;3186;54.062;9.962;2023-08-21T15:47:14;30.40;31.00
6307;DHT22;3186;54.062;9.962;2023-08-21T15:49:39;30.40;30.60
6307;DHT22;3186;54.062;9.962;2023-08-21T15:52:05;30.50;28.20
6307;DHT22;3186;54.062;9.962;2023-08-21T15:54:32;30.30;27.60
6307;DHT22;3186;54.062;9.962;2023-08-21T15:57:01;30.10;14.90
6307;DHT22;3186;54.062;9.962;2023-08-21T15:59:27;30.00;27.20
6307;DHT22;3186;54.062;9.962;2023-08-21T16:01:53;29.90;27.70
6307;DHT22;3186;54.062;9.962;2023-08-21T16:04:19;29.90;26.40
6307;DHT22;3186;54.062;9.962;2023-08-21T16:06:45;30.10;29.40
6307;DHT22;3186;54.062;9.962;2023-08-21T16:09:11;30.40;25.00
6307;DHT22;3186;54.062;9.962;2023-08-21T16:11:37;30.30;27.40
6307;DHT22;3186;54.062;9.962;2023-08-21T16:14:02;30.40;27.30